sensor_id;sensor_type;location;lat;lon;timestamp;temperature;humidity
18191;DHT22;47004;51.366;12.348;2024-03-22T00:00:53;7.10;99.90
18191;DHT22;47004;51.366;12.348;2024-03-22T00:02:54;7.00;99.90
18191;DHT22;47004;51.366;12.348;2024-03-22T00:04:56;6.90;99.90
18191;DHT22;47004;51.366;12.348;2024-03-22T00:06:57;6.90;99.90
18191;DHT22;47004;51.366;12.348;2024-03-22T00:09:00;6.80;99.90
18191;DHT22;47004;51.366;12.348;2024-03-22T00:11:01;6.80;99.90
18191;DHT22;47004;51.366;12.348;2024-03-22T00:13:04;6.80;99.90
18191;DHT22;47004;51.366;12.348;2024-03-22T00:15:05;6.80;99.90
18191;DHT22;47004;51.366;12.348;2024-03-22T00:17:07;6.70;99.90
18191;DHT22;47004;51.366;12.348;2024-03-22T00:19:08;6.70;99.90
18191;DHT22;47004;51.366;12.348;2024-03-22T00:21:10;6.70;99.90
18191;DHT22;47004;51.366;12.348;2024-03-22T00:23:11;6.70;99.90
18191;DHT22;47004;51.366;12.348;2024-03-22T00:25:15;6.70;99.90
18191;DHT22;47004;51.366;12.348;2024-03-22T00:27:16;6.60;99.90
18191;DHT22;47004;51.366;12.348;2024-03-22T00:29:18;6.60;99.90
18191;DHT22;47004;51.366;12.348;2024-03-22T00:31:19;6.70;99.90
18191;DHT22;47004;51.366;12.348;2024-03-22T00:33:20;6.60;99.90
18191;DHT22;47004;51.366;12.348;2024-03-22T00:35:22;6.50;99.90
18191;DHT22;47004;51.366;12.348;2024-03-22T00:37:23;6.50;99.90
18191;DHT22;47004;51.366;12.348;2024-03-22T00:39:25;6.50;99.90
18191;DHT22;47004;51.366;12.348;2024-03-22T00:41:27;6.80;99.90
18191;DHT22;47004;51.366;12.348;2024-03-22T00:43:29;6.50;99.90
18191;DHT22;47004;51.366;12.348;2024-03-22T00:45:30;6.50;99.90
18191;DHT22;47004;51.366;12.348;2024-03-22T00:47:32;6.60;99.90
18191;DHT22;47004;51.366;12.348;2024-03-22T00:49:33;6.40;99.90
18191;DHT22;47004;51.366;12.348;2024-03-22T00:51:35;6.50;99.90
18191;DHT22;47004;51.366;12.348;2024-03-22T00:53:36;6.60;99.90
18191;DHT22;47004;51.366;12.348;2024-03-22T00:55:38;6.50;99.90
18191;DHT22;47004;51.366;12.348;2024-03-22T00:57:41;6.40;99.90
18191;DHT22;47004;51.366;12.348;2024-03-22T00:59:43;6.40;99.90
18191;DHT22;47004;51.366;12.348;2024-03-22T01:01:44;6.40;99.90
18191;DHT22;47004;51.366;12.348;2024-03-22T01:03:46;6.40;99.90
18191;DHT22;47004;51.366;12.348;2024-03-22T01:05:47;6.40;99.90
18191;DHT22;47004;51.366;12.348;2024-03-22T01:07:49;6.40;99.90
18191;DHT22;47004;51.366;12.348;2024-03-22T01:09:50;6.40;99.90
18191;DHT22;47004;51.366;12.348;2024-03-22T01:11:52;6.40;99.90
18191;DHT22;47004;51.366;12.348;2024-03-22T01:13:54;6.40;99.90
18191;DHT22;47004;51.366;12.348;2024-03-22T01:15:56;6.40;99.90
18191;DHT22;47004;51.366;12.348;2024-03-22T01:17:57;6.40;99.90
18191;DHT22;47004;51.366;12.348;2024-03-22T01:20:00;6.40;99.90
18191;DHT22;47004;51.366;12.348;2024-03-22T01:22:01;6.40;99.90
18191;DHT22;47004;51.366;12.348;2024-03-22T01:24:03;6.50;99.90
18191;DHT22;47004;51.366;12.348;2024-03-22T01:26:04;6.40;99.90
18191;DHT22;47004;51.366;12.348;2024-03-22T01:28:06;6.40;99.90
18191;DHT22;47004;51.366;12.348;2024-03-22T01:30:09;6.40;99.90
18191;DHT22;47004;51.366;12.348;2024-03-22T01:32:12;6.40;99.90
18191;DHT22;47004;51.366;12.348;2024-03-22T01:34:13;6.40;99.90
18191;DHT22;47004;51.366;12.348;2024-03-22T01:36:15;6.40;99.90
18191;DHT22;47004;51.366;12.348;2024-03-22T01:38:16;6.40;99.90
18191;DHT22;47004;51.366;12.348;2024-03-22T01:40:19;6.40;99.90
18191;DHT22;47004;51.366;12.348;2024-03-22T01:42:20;6.70;99.90
18191;DHT22;47004;51.366;12.348;2024-03-22T01:44:27;6.40;99.90
18191;DHT22;47004;51.366;12.348;2024-03-22T01:46:30;6.50;99.90
18191;DHT22;47004;51.366;12.348;2024-03-22T01:48:32;6.40;99.90
18191;DHT22;47004;51.366;12.348;2024-03-22T01:50:33;6.40;99.90
18191;DHT22;47004;51.366;12.348;2024-03-22T01:52:35;6.40;99.90
18191;DHT22;47004;51.366;12.348;2024-03-22T01:54:36;6.40;99.90
18191;DHT22;47004;51.366;12.348;2024-03-22T01:56:39;6.40;99.90
18191;DHT22;47004;51.366;12.348;2024-03-22T01:58:41;6.50;99.90
18191;DHT22;47004;51.366;12.348;2024-03-22T02:00:43;6.40;99.90
18191;DHT22;47004;51.366;12.348;2024-03-22T02:02:45;6.40;99.90
18191;DHT22;47004;51.366;12.348;2024-03-22T02:04:50;6.30;99.90
18191;DHT22;47004;51.366;12.348;2024-03-22T02:06:51;6.30;99.90
18191;DHT22;47004;51.366;12.348;2024-03-22T02:08:54;6.30;99.90
18191;DHT22;47004;51.366;12.348;2024-03-22T02:10:55;6.30;99.90
18191;DHT22;47004;51.366;12.348;2024-03-22T02:12:59;6.40;99.90
18191;DHT22;47004;51.366;12.348;2024-03-22T02:15:02;6.40;99.90
18191;DHT22;47004;51.366;12.348;2024-03-22T02:17:04;6.30;99.90
18191;DHT22;47004;51.366;12.348;2024-03-22T02:19:06;6.30;99.90
18191;DHT22;47004;51.366;12.348;2024-03-22T02:21:08;6.30;99.90
18191;DHT22;47004;51.366;12.348;2024-03-22T02:23:09;6.30;99.90
18191;DHT22;47004;51.366;12.348;2024-03-22T02:25:12;6.30;99.90
18191;DHT22;47004;51.366;12.348;2024-03-22T02:27:13;6.30;99.90
18191;DHT22;47004;51.366;12.348;2024-03-22T02:29:15;6.30;99.90
18191;DHT22;47004;51.366;12.348;2024-03-22T02:31:16;6.30;99.90
18191;DHT22;47004;51.366;12.348;2024-03-22T02:33:19;6.30;99.90
18191;DHT22;47004;51.366;12.348;2024-03-22T02:35:20;6.30;99.90
18191;DHT22;47004;51.366;12.348;2024-03-22T02:37:22;6.40;99.90
18191;DHT22;47004;51.366;12.348;2024-03-22T02:39:23;6.40;99.90
18191;DHT22;47004;51.366;12.348;2024-03-22T02:41:27;6.40;99.90
18191;DHT22;47004;51.366;12.348;2024-03-22T02:43:28;6.40;99.90
18191;DHT22;47004;51.366;12.348;2024-03-22T02:45:30;6.40;99.90
18191;DHT22;47004;51.366;12.348;2024-03-22T02:47:31;6.40;99.90
18191;DHT22;47004;51.366;12.348;2024-03-22T02:49:33;6.40;99.90
18191;DHT22;47004;51.366;12.348;2024-03-22T02:51:34;6.40;99.90
18191;DHT22;47004;51.366;12.348;2024-03-22T02:53:36;6.40;99.90
18191;DHT22;47004;51.366;12.348;2024-03-22T02:55:38;6.40;99.90
18191;DHT22;47004;51.366;12.348;2024-03-22T02:57:41;6.40;99.90
18191;DHT22;47004;51.366;12.348;2024-03-22T02:59:42;6.40;99.90
18191;DHT22;47004;51.366;12.348;2024-03-22T03:01:44;6.40;99.90
18191;DHT22;47004;51.366;12.348;2024-03-22T03:03:45;6.40;99.90
18191;DHT22;47004;51.366;12.348;2024-03-22T03:05:47;6.40;99.90
18191;DHT22;47004;51.366;12.348;2024-03-22T03:07:48;6.40;99.90
18191;DHT22;47004;51.366;12.348;2024-03-22T03:09:51;6.40;99.90
18191;DHT22;47004;51.366;12.348;2024-03-22T03:11:52;6.50;99.90
18191;DHT22;47004;51.366;12.348;2024-03-22T03:13:55;6.40;99.90
18191;DHT22;47004;51.366;12.348;2024-03-22T03:15:56;6.40;99.90
18191;DHT22;47004;51.366;12.348;2024-03-22T03:17:58;6.40;99.90
18191;DHT22;47004;51.366;12.348;2024-03-22T03:19:59;6.40;99.90
18191;DHT22;47004;51.366;12.348;2024-03-22T03:22:01;6.50;99.90
18191;DHT22;47004;51.366;12.348;2024-03-22T03:24:02;6.50;99.90
18191;DHT22;47004;51.366;12.348;2024-03-22T03:26:04;6.50;99.90
18191;DHT22;47004;51.366;12.348;2024-03-22T03:28:05;6.50;99.90
18191;DHT22;47004;51.366;12.348;2024-03-22T03:30:10;6.50;99.90
18191;DHT22;47004;51.366;12.348;2024-03-22T03:32:11;6.50;99.90
18191;DHT22;47004;51.366;12.348;2024-03-22T03:34:13;6.50;99.90
18191;DHT22;47004;51.366;12.348;2024-03-22T03:36:14;6.50;99.90
18191;DHT22;47004;51.366;12.348;2024-03-22T03:38:16;6.50;99.90
18191;DHT22;47004;51.366;12.348;2024-03-22T03:40:17;6.50;99.90
18191;DHT22;47004;51.366;12.348;2024-03-22T03:42:19;6.60;99.90
18191;DHT22;47004;51.366;12.348;2024-03-22T03:44:19;6.50;99.90
18191;DHT22;47004;51.366;12.348;2024-03-22T03:46:23;6.50;99.90
18191;DHT22;47004;51.366;12.348;2024-03-22T03:48:24;6.60;99.90
18191;DHT22;47004;51.366;12.348;2024-03-22T03:50:26;6.60;99.90
18191;DHT22;47004;51.366;12.348;2024-03-22T03:52:26;6.60;99.90
18191;DHT22;47004;51.366;12.348;2024-03-22T03:54:28;6.60;99.90
18191;DHT22;47004;51.366;12.348;2024-03-22T03:56:29;6.60;99.90
18191;DHT22;47004;51.366;12.348;2024-03-22T03:58:31;6.60;99.90
18191;DHT22;47004;51.366;12.348;2024-03-22T04:00:32;6.60;99.90
18191;DHT22;47004;51.366;12.348;2024-03-22T04:02:35;6.60;99.90
18191;DHT22;47004;51.366;12.348;2024-03-22T04:04:36;6.60;99.90
18191;DHT22;47004;51.366;12.348;2024-03-22T04:06:38;6.60;99.90
18191;DHT22;47004;51.366;12.348;2024-03-22T04:08:39;6.60;99.90
18191;DHT22;47004;51.366;12.348;2024-03-22T04:10:41;6.60;99.90
18191;DHT22;47004;51.366;12.348;2024-03-22T04:12:42;6.60;99.90
18191;DHT22;47004;51.366;12.348;2024-03-22T04:14:44;6.60;99.90
18191;DHT22;47004;51.366;12.348;2024-03-22T04:16:45;6.60;99.90
18191;DHT22;47004;51.366;12.348;2024-03-22T04:18:48;6.60;99.90
18191;DHT22;47004;51.366;12.348;2024-03-22T04:20:53;6.60;99.90
18191;DHT22;47004;51.366;12.348;2024-03-22T04:22:56;6.60;99.90
18191;DHT22;47004;51.366;12.348;2024-03-22T04:24:57;6.60;99.90
18191;DHT22;47004;51.366;12.348;2024-03-22T04:26:59;6.60;99.90
18191;DHT22;47004;51.366;12.348;2024-03-22T04:28:59;6.60;99.90
18191;DHT22;47004;51.366;12.348;2024-03-22T04:31:03;6.60;99.90
18191;DHT22;47004;51.366;12.348;2024-03-22T04:33:04;6.60;99.90
18191;DHT22;47004;51.366;12.348;2024-03-22T04:35:08;6.60;99.90
18191;DHT22;47004;51.366;12.348;2024-03-22T04:37:10;6.70;99.90
18191;DHT22;47004;51.366;12.348;2024-03-22T04:39:13;6.60;99.90
18191;DHT22;47004;51.366;12.348;2024-03-22T04:41:17;6.70;99.90
18191;DHT22;47004;51.366;12.348;2024-03-22T04:43:19;6.70;99.90
18191;DHT22;47004;51.366;12.348;2024-03-22T04:45:20;6.70;99.90
18191;DHT22;47004;51.366;12.348;2024-03-22T04:47:22;6.60;99.90
18191;DHT22;47004;51.366;12.348;2024-03-22T04:49:23;6.60;99.90
18191;DHT22;47004;51.366;12.348;2024-03-22T04:51:26;6.70;99.90
18191;DHT22;47004;51.366;12.348;2024-03-22T04:53:27;6.70;99.90
18191;DHT22;47004;51.366;12.348;2024-03-22T04:55:29;6.70;99.90
18191;DHT22;47004;51.366;12.348;2024-03-22T04:57:30;6.70;99.90
18191;DHT22;47004;51.366;12.348;2024-03-22T04:59:32;6.70;99.90
18191;DHT22;47004;51.366;12.348;2024-03-22T05:01:33;6.70;99.90
18191;DHT22;47004;51.366;12.348;2024-03-22T05:03:35;6.70;99.90
18191;DHT22;47004;51.366;12.348;2024-03-22T05:05:36;6.70;99.90
18191;DHT22;47004;51.366;12.348;2024-03-22T05:07:40;6.70;99.90
18191;DHT22;47004;51.366;12.348;2024-03-22T05:09:41;6.70;99.90
18191;DHT22;47004;51.366;12.348;2024-03-22T05:11:45;6.70;99.90
18191;DHT22;47004;51.366;12.348;2024-03-22T05:13:50;6.70;99.90
18191;DHT22;47004;51.366;12.348;2024-03-22T05:15:52;6.80;99.90
18191;DHT22;47004;51.366;12.348;2024-03-22T05:17:57;6.80;99.90
18191;DHT22;47004;51.366;12.348;2024-03-22T05:19:59;6.80;99.90
18191;DHT22;47004;51.366;12.348;2024-03-22T05:22:00;6.80;99.90
18191;DHT22;47004;51.366;12.348;2024-03-22T05:24:05;6.80;99.90
18191;DHT22;47004;51.366;12.348;2024-03-22T05:26:06;6.80;99.90
18191;DHT22;47004;51.366;12.348;2024-03-22T05:28:08;6.80;99.90
18191;DHT22;47004;51.366;12.348;2024-03-22T05:30:12;6.80;99.90
18191;DHT22;47004;51.366;12.348;2024-03-22T05:32:14;6.80;99.90
18191;DHT22;47004;51.366;12.348;2024-03-22T05:34:15;6.80;99.90
18191;DHT22;47004;51.366;12.348;2024-03-22T05:36:17;6.80;99.90
18191;DHT22;47004;51.366;12.348;2024-03-22T05:38:18;6.80;99.90
18191;DHT22;47004;51.366;12.348;2024-03-22T05:40:22;6.90;99.90
18191;DHT22;47004;51.366;12.348;2024-03-22T05:42:23;6.90;99.90
18191;DHT22;47004;51.366;12.348;2024-03-22T05:44:25;6.90;99.90
18191;DHT22;47004;51.366;12.348;2024-03-22T05:46:26;6.90;99.90
18191;DHT22;47004;51.366;12.348;2024-03-22T05:48:28;6.90;99.90
18191;DHT22;47004;51.366;12.348;2024-03-22T05:50:29;6.90;99.90
18191;DHT22;47004;51.366;12.348;2024-03-22T05:52:31;7.00;99.90
18191;DHT22;47004;51.366;12.348;2024-03-22T05:54:32;7.00;99.90
18191;DHT22;47004;51.366;12.348;2024-03-22T05:56:35;7.00;99.90
18191;DHT22;47004;51.366;12.348;2024-03-22T05:58:36;7.10;99.90
18191;DHT22;47004;51.366;12.348;2024-03-22T06:00:39;7.10;99.90
18191;DHT22;47004;51.366;12.348;2024-03-22T06:02:40;7.10;99.90
18191;DHT22;47004;51.366;12.348;2024-03-22T06:04:42;7.10;99.90
18191;DHT22;47004;51.366;12.348;2024-03-22T06:06:43;7.10;99.90
18191;DHT22;47004;51.366;12.348;2024-03-22T06:08:50;7.10;99.90
18191;DHT22;47004;51.366;12.348;2024-03-22T06:10:54;7.20;99.90
18191;DHT22;47004;51.366;12.348;2024-03-22T06:12:57;7.20;99.90
18191;DHT22;47004;51.366;12.348;2024-03-22T06:14:58;7.20;99.90
18191;DHT22;47004;51.366;12.348;2024-03-22T06:17:00;7.20;99.90
18191;DHT22;47004;51.366;12.348;2024-03-22T06:19:01;7.20;99.90
18191;DHT22;47004;51.366;12.348;2024-03-22T06:21:04;7.30;99.90
18191;DHT22;47004;51.366;12.348;2024-03-22T06:23:05;7.30;99.90
18191;DHT22;47004;51.366;12.348;2024-03-22T06:25:07;7.40;99.90
18191;DHT22;47004;51.366;12.348;2024-03-22T06:27:08;7.40;99.90
18191;DHT22;47004;51.366;12.348;2024-03-22T06:29:12;7.50;99.90
18191;DHT22;47004;51.366;12.348;2024-03-22T06:31:13;7.50;99.90
18191;DHT22;47004;51.366;12.348;2024-03-22T06:33:15;7.60;99.90
18191;DHT22;47004;51.366;12.348;2024-03-22T06:35:16;7.70;99.90
18191;DHT22;47004;51.366;12.348;2024-03-22T06:37:23;7.70;99.90
18191;DHT22;47004;51.366;12.348;2024-03-22T06:39:24;7.80;99.90
18191;DHT22;47004;51.366;12.348;2024-03-22T06:41:27;7.80;99.90
18191;DHT22;47004;51.366;12.348;2024-03-22T06:43:28;7.80;99.90
18191;DHT22;47004;51.366;12.348;2024-03-22T06:45:31;7.90;99.90
18191;DHT22;47004;51.366;12.348;2024-03-22T06:47:32;7.90;99.90
18191;DHT22;47004;51.366;12.348;2024-03-22T06:49:34;8.00;99.90
18191;DHT22;47004;51.366;12.348;2024-03-22T06:51:35;8.00;99.90
18191;DHT22;47004;51.366;12.348;2024-03-22T06:53:37;8.10;99.90
18191;DHT22;47004;51.366;12.348;2024-03-22T06:55:38;8.20;99.90
18191;DHT22;47004;51.366;12.348;2024-03-22T06:57:40;8.30;99.90
18191;DHT22;47004;51.366;12.348;2024-03-22T06:59:41;8.30;99.90
18191;DHT22;47004;51.366;12.348;2024-03-22T07:01:45;8.30;99.90
18191;DHT22;47004;51.366;12.348;2024-03-22T07:03:46;8.30;99.90
18191;DHT22;47004;51.366;12.348;2024-03-22T07:05:48;8.40;99.90
18191;DHT22;47004;51.366;12.348;2024-03-22T07:07:49;8.40;99.90
18191;DHT22;47004;51.366;12.348;2024-03-22T07:09:54;8.50;99.90
18191;DHT22;47004;51.366;12.348;2024-03-22T07:11:55;8.50;99.90
18191;DHT22;47004;51.366;12.348;2024-03-22T07:13:57;8.50;99.90
18191;DHT22;47004;51.366;12.348;2024-03-22T07:15:57;8.60;99.90
18191;DHT22;47004;51.366;12.348;2024-03-22T07:18:01;8.60;99.90
18191;DHT22;47004;51.366;12.348;2024-03-22T07:20:03;8.70;99.90
18191;DHT22;47004;51.366;12.348;2024-03-22T07:22:05;8.70;99.90
18191;DHT22;47004;51.366;12.348;2024-03-22T07:24:06;8.70;99.90
18191;DHT22;47004;51.366;12.348;2024-03-22T07:26:08;8.80;99.90
18191;DHT22;47004;51.366;12.348;2024-03-22T07:28:09;8.90;99.90
18191;DHT22;47004;51.366;12.348;2024-03-22T07:30:16;8.90;99.90
18191;DHT22;47004;51.366;12.348;2024-03-22T07:32:17;8.90;99.90
18191;DHT22;47004;51.366;12.348;2024-03-22T07:34:20;8.90;99.90
18191;DHT22;47004;51.366;12.348;2024-03-22T07:36:21;8.90;99.90
18191;DHT22;47004;51.366;12.348;2024-03-22T07:38:22;9.00;99.90
18191;DHT22;47004;51.366;12.348;2024-03-22T07:40:24;9.10;99.90
18191;DHT22;47004;51.366;12.348;2024-03-22T07:42:25;9.20;99.90
18191;DHT22;47004;51.366;12.348;2024-03-22T07:44:27;9.30;99.90
18191;DHT22;47004;51.366;12.348;2024-03-22T07:46:29;9.30;99.90
18191;DHT22;47004;51.366;12.348;2024-03-22T07:48:31;9.40;99.90
18191;DHT22;47004;51.366;12.348;2024-03-22T07:50:33;9.40;99.90
18191;DHT22;47004;51.366;12.348;2024-03-22T07:52:34;9.50;99.90
18191;DHT22;47004;51.366;12.348;2024-03-22T07:54:36;9.50;99.90
18191;DHT22;47004;51.366;12.348;2024-03-22T07:56:37;9.60;99.90
18191;DHT22;47004;51.366;12.348;2024-03-22T07:58:39;9.60;99.90
18191;DHT22;47004;51.366;12.348;2024-03-22T08:00:40;9.70;99.90
18191;DHT22;47004;51.366;12.348;2024-03-22T08:02:42;9.80;99.90
18191;DHT22;47004;51.366;12.348;2024-03-22T08:04:43;9.80;99.90
18191;DHT22;47004;51.366;12.348;2024-03-22T08:06:47;9.90;99.90
18191;DHT22;47004;51.366;12.348;2024-03-22T08:08:48;10.00;99.90
18191;DHT22;47004;51.366;12.348;2024-03-22T08:10:50;10.00;99.90
18191;DHT22;47004;51.366;12.348;2024-03-22T08:12:51;10.10;99.90
18191;DHT22;47004;51.366;12.348;2024-03-22T08:14:53;10.10;99.90
18191;DHT22;47004;51.366;12.348;2024-03-22T08:16:54;10.20;99.90
18191;DHT22;47004;51.366;12.348;2024-03-22T08:18:56;10.20;99.90
18191;DHT22;47004;51.366;12.348;2024-03-22T08:20:57;10.30;99.90
18191;DHT22;47004;51.366;12.348;2024-03-22T08:23:01;10.40;99.90
18191;DHT22;47004;51.366;12.348;2024-03-22T08:25:03;10.40;99.90
18191;DHT22;47004;51.366;12.348;2024-03-22T08:27:08;10.50;99.90
18191;DHT22;47004;51.366;12.348;2024-03-22T08:29:08;10.50;99.90
18191;DHT22;47004;51.366;12.348;2024-03-22T08:31:10;10.50;99.90
18191;DHT22;47004;51.366;12.348;2024-03-22T08:33:12;10.60;99.90
18191;DHT22;47004;51.366;12.348;2024-03-22T08:35:14;10.60;99.90
18191;DHT22;47004;51.366;12.348;2024-03-22T08:37:15;10.60;99.90
18191;DHT22;47004;51.366;12.348;2024-03-22T08:39:18;10.70;99.90
18191;DHT22;47004;51.366;12.348;2024-03-22T08:41:19;10.80;99.90
18191;DHT22;47004;51.366;12.348;2024-03-22T08:43:21;10.80;99.90
18191;DHT22;47004;51.366;12.348;2024-03-22T08:45:23;10.90;99.90
18191;DHT22;47004;51.366;12.348;2024-03-22T08:47:25;11.00;99.90
18191;DHT22;47004;51.366;12.348;2024-03-22T08:49:26;11.20;99.90
18191;DHT22;47004;51.366;12.348;2024-03-22T08:51:30;11.20;99.90
18191;DHT22;47004;51.366;12.348;2024-03-22T08:53:32;11.30;99.90
18191;DHT22;47004;51.366;12.348;2024-03-22T08:55:35;11.40;99.90
18191;DHT22;47004;51.366;12.348;2024-03-22T08:57:37;11.50;99.90
18191;DHT22;47004;51.366;12.348;2024-03-22T08:59:38;11.50;99.90
18191;DHT22;47004;51.366;12.348;2024-03-22T09:01:44;11.50;99.90
18191;DHT22;47004;51.366;12.348;2024-03-22T09:03:45;11.50;99.90
18191;DHT22;47004;51.366;12.348;2024-03-22T09:05:47;11.50;99.90
18191;DHT22;47004;51.366;12.348;2024-03-22T09:07:48;11.60;99.90
18191;DHT22;47004;51.366;12.348;2024-03-22T09:09:50;11.70;99.90
18191;DHT22;47004;51.366;12.348;2024-03-22T09:11:53;11.70;99.90
18191;DHT22;47004;51.366;12.348;2024-03-22T09:13:55;11.70;99.90
18191;DHT22;47004;51.366;12.348;2024-03-22T09:15:59;11.80;99.90
18191;DHT22;47004;51.366;12.348;2024-03-22T09:18:01;11.90;99.90
18191;DHT22;47004;51.366;12.348;2024-03-22T09:20:03;12.10;99.90
18191;DHT22;47004;51.366;12.348;2024-03-22T09:22:07;12.10;99.90
18191;DHT22;47004;51.366;12.348;2024-03-22T09:24:09;12.20;99.90
18191;DHT22;47004;51.366;12.348;2024-03-22T09:26:10;12.30;99.90
18191;DHT22;47004;51.366;12.348;2024-03-22T09:28:14;12.40;99.90
18191;DHT22;47004;51.366;12.348;2024-03-22T09:30:15;12.50;99.90
18191;DHT22;47004;51.366;12.348;2024-03-22T09:32:17;12.50;99.90
18191;DHT22;47004;51.366;12.348;2024-03-22T09:34:20;12.60;99.90
18191;DHT22;47004;51.366;12.348;2024-03-22T09:36:21;12.80;99.90
18191;DHT22;47004;51.366;12.348;2024-03-22T09:38:22;12.90;99.90
18191;DHT22;47004;51.366;12.348;2024-03-22T09:40:24;13.00;99.90
18191;DHT22;47004;51.366;12.348;2024-03-22T09:42:26;13.00;99.90
18191;DHT22;47004;51.366;12.348;2024-03-22T09:44:32;13.10;99.90
18191;DHT22;47004;51.366;12.348;2024-03-22T09:46:33;13.10;99.90
18191;DHT22;47004;51.366;12.348;2024-03-22T09:48:36;13.10;99.90
18191;DHT22;47004;51.366;12.348;2024-03-22T09:50:38;13.10;99.90
18191;DHT22;47004;51.366;12.348;2024-03-22T09:52:41;13.20;99.90
18191;DHT22;47004;51.366;12.348;2024-03-22T09:54:42;13.20;99.90
18191;DHT22;47004;51.366;12.348;2024-03-22T09:56:46;13.20;99.90
18191;DHT22;47004;51.366;12.348;2024-03-22T09:58:49;13.20;99.90
18191;DHT22;47004;51.366;12.348;2024-03-22T10:00:52;13.30;99.90
18191;DHT22;47004;51.366;12.348;2024-03-22T10:02:56;13.30;99.90
18191;DHT22;47004;51.366;12.348;2024-03-22T10:04:59;13.40;99.90
18191;DHT22;47004;51.366;12.348;2024-03-22T10:07:00;13.40;99.90
18191;DHT22;47004;51.366;12.348;2024-03-22T10:09:02;13.50;99.90
18191;DHT22;47004;51.366;12.348;2024-03-22T10:11:04;13.60;99.90
18191;DHT22;47004;51.366;12.348;2024-03-22T10:13:06;13.60;99.90
18191;DHT22;47004;51.366;12.348;2024-03-22T10:15:07;13.70;99.90
18191;DHT22;47004;51.366;12.348;2024-03-22T10:17:11;13.80;99.90
18191;DHT22;47004;51.366;12.348;2024-03-22T10:19:12;13.90;99.90
18191;DHT22;47004;51.366;12.348;2024-03-22T10:21:17;13.90;99.90
18191;DHT22;47004;51.366;12.348;2024-03-22T10:23:23;13.90;99.90
18191;DHT22;47004;51.366;12.348;2024-03-22T10:25:27;13.90;99.90
18191;DHT22;47004;51.366;12.348;2024-03-22T10:27:28;13.90;99.90
18191;DHT22;47004;51.366;12.348;2024-03-22T10:29:30;14.00;99.90
18191;DHT22;47004;51.366;12.348;2024-03-22T10:31:31;14.00;99.90
18191;DHT22;47004;51.366;12.348;2024-03-22T10:33:35;14.00;99.90
18191;DHT22;47004;51.366;12.348;2024-03-22T10:35:36;14.00;99.90
18191;DHT22;47004;51.366;12.348;2024-03-22T10:37:39;14.00;99.90
18191;DHT22;47004;51.366;12.348;2024-03-22T10:39:42;14.00;99.90
18191;DHT22;47004;51.366;12.348;2024-03-22T10:41:45;14.00;99.90
18191;DHT22;47004;51.366;12.348;2024-03-22T10:43:46;14.00;99.90
18191;DHT22;47004;51.366;12.348;2024-03-22T10:45:50;14.00;99.90
18191;DHT22;47004;51.366;12.348;2024-03-22T10:47:55;14.10;99.90
18191;DHT22;47004;51.366;12.348;2024-03-22T10:50:04;14.10;99.90
18191;DHT22;47004;51.366;12.348;2024-03-22T10:52:07;14.20;99.90
18191;DHT22;47004;51.366;12.348;2024-03-22T10:54:13;14.30;99.90
18191;DHT22;47004;51.366;12.348;2024-03-22T10:56:16;14.40;99.90
18191;DHT22;47004;51.366;12.348;2024-03-22T10:58:22;14.50;99.90
18191;DHT22;47004;51.366;12.348;2024-03-22T11:00:27;14.60;99.90
18191;DHT22;47004;51.366;12.348;2024-03-22T11:02:30;14.70;99.90
18191;DHT22;47004;51.366;12.348;2024-03-22T11:04:31;14.80;99.90
18191;DHT22;47004;51.366;12.348;2024-03-22T11:06:36;14.90;99.90
18191;DHT22;47004;51.366;12.348;2024-03-22T11:08:37;15.00;99.90
18191;DHT22;47004;51.366;12.348;2024-03-22T11:10:39;15.00;99.90
18191;DHT22;47004;51.366;12.348;2024-03-22T11:12:41;15.10;99.90
18191;DHT22;47004;51.366;12.348;2024-03-22T11:14:43;15.20;99.90
18191;DHT22;47004;51.366;12.348;2024-03-22T11:16:44;15.20;99.90
18191;DHT22;47004;51.366;12.348;2024-03-22T11:18:46;15.30;99.90
18191;DHT22;47004;51.366;12.348;2024-03-22T11:20:47;15.30;99.90
18191;DHT22;47004;51.366;12.348;2024-03-22T11:22:51;15.50;99.90
18191;DHT22;47004;51.366;12.348;2024-03-22T11:24:52;15.60;99.90
18191;DHT22;47004;51.366;12.348;2024-03-22T11:26:54;15.60;99.90
18191;DHT22;47004;51.366;12.348;2024-03-22T11:28:55;15.70;99.90
18191;DHT22;47004;51.366;12.348;2024-03-22T11:30:57;15.80;99.90
18191;DHT22;47004;51.366;12.348;2024-03-22T11:33:00;15.70;99.90
18191;DHT22;47004;51.366;12.348;2024-03-22T11:35:04;15.70;99.90
18191;DHT22;47004;51.366;12.348;2024-03-22T11:37:08;15.80;99.90
18191;DHT22;47004;51.366;12.348;2024-03-22T11:39:12;15.80;99.90
18191;DHT22;47004;51.366;12.348;2024-03-22T11:41:14;15.80;99.90
18191;DHT22;47004;51.366;12.348;2024-03-22T11:43:17;15.90;99.90
18191;DHT22;47004;51.366;12.348;2024-03-22T11:45:19;15.90;99.90
18191;DHT22;47004;51.366;12.348;2024-03-22T11:47:22;15.90;99.90
18191;DHT22;47004;51.366;12.348;2024-03-22T11:49:23;16.00;99.90
18191;DHT22;47004;51.366;12.348;2024-03-22T11:51:25;15.90;99.90
18191;DHT22;47004;51.366;12.348;2024-03-22T11:53:26;15.90;99.90
18191;DHT22;47004;51.366;12.348;2024-03-22T11:55:29;16.00;99.90
18191;DHT22;47004;51.366;12.348;2024-03-22T11:57:30;16.10;99.90
18191;DHT22;47004;51.366;12.348;2024-03-22T11:59:32;16.30;99.90
18191;DHT22;47004;51.366;12.348;2024-03-22T12:01:33;16.40;99.90
18191;DHT22;47004;51.366;12.348;2024-03-22T12:03:35;16.50;99.90
18191;DHT22;47004;51.366;12.348;2024-03-22T12:05:36;16.60;99.90
18191;DHT22;47004;51.366;12.348;2024-03-22T12:07:39;16.60;99.90
18191;DHT22;47004;51.366;12.348;2024-03-22T12:09:41;16.70;99.90
18191;DHT22;47004;51.366;12.348;2024-03-22T12:11:44;16.80;99.90
18191;DHT22;47004;51.366;12.348;2024-03-22T12:13:46;16.80;99.90
18191;DHT22;47004;51.366;12.348;2024-03-22T12:15:48;16.80;99.90
18191;DHT22;47004;51.366;12.348;2024-03-22T12:17:49;16.80;99.90
18191;DHT22;47004;51.366;12.348;2024-03-22T12:19:51;16.80;99.90
18191;DHT22;47004;51.366;12.348;2024-03-22T12:21:53;16.90;99.90
18191;DHT22;47004;51.366;12.348;2024-03-22T12:23:55;16.90;99.90
18191;DHT22;47004;51.366;12.348;2024-03-22T12:25:56;16.90;99.90
18191;DHT22;47004;51.366;12.348;2024-03-22T12:27:59;17.00;99.90
18191;DHT22;47004;51.366;12.348;2024-03-22T12:30:00;17.00;99.90
18191;DHT22;47004;51.366;12.348;2024-03-22T12:32:04;17.10;99.90
18191;DHT22;47004;51.366;12.348;2024-03-22T12:34:05;17.20;99.90
18191;DHT22;47004;51.366;12.348;2024-03-22T12:36:07;17.20;99.90
18191;DHT22;47004;51.366;12.348;2024-03-22T12:38:08;17.30;99.90
18191;DHT22;47004;51.366;12.348;2024-03-22T12:40:14;17.40;99.90
18191;DHT22;47004;51.366;12.348;2024-03-22T12:42:15;17.50;99.90
18191;DHT22;47004;51.366;12.348;2024-03-22T12:44:19;17.60;99.90
18191;DHT22;47004;51.366;12.348;2024-03-22T12:46:20;17.50;99.90